sensor_id;sensor_type;location;lat;lon;timestamp;temperature;humidity
16929;DHT22;8581;47.334;11.190;2023-04-24T00:00:55;7.40;99.90
16929;DHT22;8581;47.334;11.190;2023-04-24T00:03:29;7.10;99.90
16929;DHT22;8581;47.334;11.190;2023-04-24T00:06:00;7.20;99.90
16929;DHT22;8581;47.334;11.190;2023-04-24T00:08:32;7.20;99.90
16929;DHT22;8581;47.334;11.190;2023-04-24T00:11:04;7.20;99.90
16929;DHT22;8581;47.334;11.190;2023-04-24T00:13:35;7.00;99.90
16929;DHT22;8581;47.334;11.190;2023-04-24T00:16:07;7.00;99.90
16929;DHT22;8581;47.334;11.190;2023-04-24T00:18:38;6.90;99.90
16929;DHT22;8581;47.334;11.190;2023-04-24T00:21:10;6.70;99.90
16929;DHT22;8581;47.334;11.190;2023-04-24T00:23:42;6.60;99.90
16929;DHT22;8581;47.334;11.190;2023-04-24T00:26:13;6.80;99.90
16929;DHT22;8581;47.334;11.190;2023-04-24T00:28:45;6.90;99.90
16929;DHT22;8581;47.334;11.190;2023-04-24T00:31:16;6.90;99.90
16929;DHT22;8581;47.334;11.190;2023-04-24T00:33:48;6.90;99.90
16929;DHT22;8581;47.334;11.190;2023-04-24T00:36:19;6.90;99.90
16929;DHT22;8581;47.334;11.190;2023-04-24T00:38:51;6.80;99.90
16929;DHT22;8581;47.334;11.190;2023-04-24T00:41:24;6.60;99.90
16929;DHT22;8581;47.334;11.190;2023-04-24T00:43:54;6.40;99.90
16929;DHT22;8581;47.334;11.190;2023-04-24T00:46:26;6.40;99.90
16929;DHT22;8581;47.334;11.190;2023-04-24T00:48:58;6.60;99.90
16929;DHT22;8581;47.334;11.190;2023-04-24T00:51:29;6.70;99.90
16929;DHT22;8581;47.334;11.190;2023-04-24T00:54:01;6.80;99.90
16929;DHT22;8581;47.334;11.190;2023-04-24T00:56:32;6.70;99.90
16929;DHT22;8581;47.334;11.190;2023-04-24T00:59:04;6.50;99.90
16929;DHT22;8581;47.334;11.190;2023-04-24T01:01:35;6.40;99.90
16929;DHT22;8581;47.334;11.190;2023-04-24T01:04:07;6.50;99.90
16929;DHT22;8581;47.334;11.190;2023-04-24T01:06:39;6.50;99.90
16929;DHT22;8581;47.334;11.190;2023-04-24T01:09:10;6.60;99.90
16929;DHT22;8581;47.334;11.190;2023-04-24T01:11:42;6.60;99.90
16929;DHT22;8581;47.334;11.190;2023-04-24T01:14:13;6.60;99.90
16929;DHT22;8581;47.334;11.190;2023-04-24T01:16:45;6.60;99.90
16929;DHT22;8581;47.334;11.190;2023-04-24T01:19:17;6.40;99.90
16929;DHT22;8581;47.334;11.190;2023-04-24T01:21:48;6.40;99.90
16929;DHT22;8581;47.334;11.190;2023-04-24T01:24:20;6.30;99.90
16929;DHT22;8581;47.334;11.190;2023-04-24T01:26:52;6.30;99.90
16929;DHT22;8581;47.334;11.190;2023-04-24T01:29:23;6.20;99.90
16929;DHT22;8581;47.334;11.190;2023-04-24T01:31:55;6.20;99.90
16929;DHT22;8581;47.334;11.190;2023-04-24T01:34:26;6.20;99.90
16929;DHT22;8581;47.334;11.190;2023-04-24T01:36:58;6.00;99.90
16929;DHT22;8581;47.334;11.190;2023-04-24T01:39:30;6.00;99.90
16929;DHT22;8581;47.334;11.190;2023-04-24T01:42:01;6.00;99.90
16929;DHT22;8581;47.334;11.190;2023-04-24T01:44:33;6.10;99.90
16929;DHT22;8581;47.334;11.190;2023-04-24T01:47:04;6.10;99.90
16929;DHT22;8581;47.334;11.190;2023-04-24T01:49:37;6.00;99.90
16929;DHT22;8581;47.334;11.190;2023-04-24T01:52:08;6.20;99.90
16929;DHT22;8581;47.334;11.190;2023-04-24T01:54:39;6.20;99.90
16929;DHT22;8581;47.334;11.190;2023-04-24T01:57:11;6.30;99.90
16929;DHT22;8581;47.334;11.190;2023-04-24T01:59:42;6.30;99.90
16929;DHT22;8581;47.334;11.190;2023-04-24T02:02:14;6.40;99.90
16929;DHT22;8581;47.334;11.190;2023-04-24T02:04:46;6.40;99.90
16929;DHT22;8581;47.334;11.190;2023-04-24T02:07:17;6.30;99.90
16929;DHT22;8581;47.334;11.190;2023-04-24T02:09:49;5.80;99.90
16929;DHT22;8581;47.334;11.190;2023-04-24T02:12:20;5.80;99.90
16929;DHT22;8581;47.334;11.190;2023-04-24T02:14:52;5.70;99.90
16929;DHT22;8581;47.334;11.190;2023-04-24T02:17:23;5.80;99.90
16929;DHT22;8581;47.334;11.190;2023-04-24T02:19:55;6.00;99.90
16929;DHT22;8581;47.334;11.190;2023-04-24T02:22:27;6.10;99.90
16929;DHT22;8581;47.334;11.190;2023-04-24T02:24:58;6.40;99.90
16929;DHT22;8581;47.334;11.190;2023-04-24T02:27:30;6.30;99.90
16929;DHT22;8581;47.334;11.190;2023-04-24T02:30:02;6.30;99.90
16929;DHT22;8581;47.334;11.190;2023-04-24T02:32:33;6.20;99.90
16929;DHT22;8581;47.334;11.190;2023-04-24T02:35:06;6.10;99.90
16929;DHT22;8581;47.334;11.190;2023-04-24T02:37:37;6.10;99.90
16929;DHT22;8581;47.334;11.190;2023-04-24T02:40:09;6.10;99.90
16929;DHT22;8581;47.334;11.190;2023-04-24T02:42:41;5.90;99.90
16929;DHT22;8581;47.334;11.190;2023-04-24T02:45:13;5.80;99.90
16929;DHT22;8581;47.334;11.190;2023-04-24T02:47:44;5.80;99.90
16929;DHT22;8581;47.334;11.190;2023-04-24T02:50:16;5.70;99.90
16929;DHT22;8581;47.334;11.190;2023-04-24T02:52:48;5.60;99.90
16929;DHT22;8581;47.334;11.190;2023-04-24T02:55:19;5.80;99.90
16929;DHT22;8581;47.334;11.190;2023-04-24T02:57:51;5.70;99.90
16929;DHT22;8581;47.334;11.190;2023-04-24T03:00:23;5.50;99.90
16929;DHT22;8581;47.334;11.190;2023-04-24T03:02:54;5.20;99.90
16929;DHT22;8581;47.334;11.190;2023-04-24T03:05:26;5.10;99.90
16929;DHT22;8581;47.334;11.190;2023-04-24T03:07:57;5.30;99.90
16929;DHT22;8581;47.334;11.190;2023-04-24T03:10:29;5.30;99.90
16929;DHT22;8581;47.334;11.190;2023-04-24T03:13:00;5.40;99.90
16929;DHT22;8581;47.334;11.190;2023-04-24T03:15:32;5.50;99.90
16929;DHT22;8581;47.334;11.190;2023-04-24T03:18:04;5.30;99.90
16929;DHT22;8581;47.334;11.190;2023-04-24T03:20:35;5.20;99.90
16929;DHT22;8581;47.334;11.190;2023-04-24T03:23:07;5.30;99.90
16929;DHT22;8581;47.334;11.190;2023-04-24T03:25:38;5.40;99.90
16929;DHT22;8581;47.334;11.190;2023-04-24T03:28:10;5.30;99.90
16929;DHT22;8581;47.334;11.190;2023-04-24T03:30:42;5.40;99.90
16929;DHT22;8581;47.334;11.190;2023-04-24T03:33:13;5.40;99.90
16929;DHT22;8581;47.334;11.190;2023-04-24T03:35:45;5.40;99.90
16929;DHT22;8581;47.334;11.190;2023-04-24T03:38:16;5.40;99.90
16929;DHT22;8581;47.334;11.190;2023-04-24T03:40:48;5.40;99.90
16929;DHT22;8581;47.334;11.190;2023-04-24T03:43:20;5.40;99.90
16929;DHT22;8581;47.334;11.190;2023-04-24T03:45:51;5.50;99.90
16929;DHT22;8581;47.334;11.190;2023-04-24T03:48:23;5.20;99.90
16929;DHT22;8581;47.334;11.190;2023-04-24T03:50:54;5.20;99.90
16929;DHT22;8581;47.334;11.190;2023-04-24T03:53:26;5.10;99.90
16929;DHT22;8581;47.334;11.190;2023-04-24T03:55:58;5.10;99.90
16929;DHT22;8581;47.334;11.190;2023-04-24T03:58:29;5.00;99.90
16929;DHT22;8581;47.334;11.190;2023-04-24T04:01:01;5.00;99.90
16929;DHT22;8581;47.334;11.190;2023-04-24T04:03:32;5.10;99.90
16929;DHT22;8581;47.334;11.190;2023-04-24T04:06:04;5.30;99.90
16929;DHT22;8581;47.334;11.190;2023-04-24T04:08:36;5.30;99.90
16929;DHT22;8581;47.334;11.190;2023-04-24T04:11:07;5.10;99.90
16929;DHT22;8581;47.334;11.190;2023-04-24T04:13:39;5.10;99.90
16929;DHT22;8581;47.334;11.190;2023-04-24T04:16:10;5.00;99.90
16929;DHT22;8581;47.334;11.190;2023-04-24T04:18:42;4.90;99.90
16929;DHT22;8581;47.334;11.190;2023-04-24T04:21:14;5.00;99.90
16929;DHT22;8581;47.334;11.190;2023-04-24T04:23:45;5.30;99.90
16929;DHT22;8581;47.334;11.190;2023-04-24T04:26:17;5.30;99.90
16929;DHT22;8581;47.334;11.190;2023-04-24T04:28:49;5.10;99.90
16929;DHT22;8581;47.334;11.190;2023-04-24T04:31:20;5.20;99.90
16929;DHT22;8581;47.334;11.190;2023-04-24T04:33:52;5.20;99.90
16929;DHT22;8581;47.334;11.190;2023-04-24T04:36:23;5.40;99.90
16929;DHT22;8581;47.334;11.190;2023-04-24T04:38:55;5.50;99.90
16929;DHT22;8581;47.334;11.190;2023-04-24T04:41:27;5.70;99.90
16929;DHT22;8581;47.334;11.190;2023-04-24T04:43:58;5.80;99.90
16929;DHT22;8581;47.334;11.190;2023-04-24T04:46:30;5.70;99.90
16929;DHT22;8581;47.334;11.190;2023-04-24T04:49:01;5.60;99.90
16929;DHT22;8581;47.334;11.190;2023-04-24T04:51:33;5.60;99.90
16929;DHT22;8581;47.334;11.190;2023-04-24T04:54:05;5.50;99.90
16929;DHT22;8581;47.334;11.190;2023-04-24T04:56:36;5.60;99.90
16929;DHT22;8581;47.334;11.190;2023-04-24T04:59:08;5.60;99.90
16929;DHT22;8581;47.334;11.190;2023-04-24T05:01:39;5.70;99.90
16929;DHT22;8581;47.334;11.190;2023-04-24T05:04:11;5.60;99.90
16929;DHT22;8581;47.334;11.190;2023-04-24T05:06:43;5.70;99.90
16929;DHT22;8581;47.334;11.190;2023-04-24T05:09:14;5.60;99.90
16929;DHT22;8581;47.334;11.190;2023-04-24T05:11:46;5.70;99.90
16929;DHT22;8581;47.334;11.190;2023-04-24T05:14:17;5.70;99.90
16929;DHT22;8581;47.334;11.190;2023-04-24T05:16:49;5.70;99.90
16929;DHT22;8581;47.334;11.190;2023-04-24T05:19:21;5.60;99.90
16929;DHT22;8581;47.334;11.190;2023-04-24T05:21:52;5.70;99.90
16929;DHT22;8581;47.334;11.190;2023-04-24T05:24:24;5.80;99.90
16929;DHT22;8581;47.334;11.190;2023-04-24T05:26:56;6.00;99.90
16929;DHT22;8581;47.334;11.190;2023-04-24T05:29:27;6.10;99.90
16929;DHT22;8581;47.334;11.190;2023-04-24T05:31:59;6.00;99.90
16929;DHT22;8581;47.334;11.190;2023-04-24T05:34:30;6.10;99.90
16929;DHT22;8581;47.334;11.190;2023-04-24T05:37:02;6.10;99.90
16929;DHT22;8581;47.334;11.190;2023-04-24T05:39:34;6.10;99.90
16929;DHT22;8581;47.334;11.190;2023-04-24T05:42:05;6.00;99.90
16929;DHT22;8581;47.334;11.190;2023-04-24T05:44:37;5.90;99.90
16929;DHT22;8581;47.334;11.190;2023-04-24T05:47:08;5.90;99.90
16929;DHT22;8581;47.334;11.190;2023-04-24T05:49:40;6.00;99.90
16929;DHT22;8581;47.334;11.190;2023-04-24T05:52:11;6.00;99.90
16929;DHT22;8581;47.334;11.190;2023-04-24T05:54:43;6.00;99.90
16929;DHT22;8581;47.334;11.190;2023-04-24T05:57:15;6.10;99.90
16929;DHT22;8581;47.334;11.190;2023-04-24T05:59:46;6.00;99.90
16929;DHT22;8581;47.334;11.190;2023-04-24T06:02:18;6.10;99.90
16929;DHT22;8581;47.334;11.190;2023-04-24T06:04:50;6.10;99.90
16929;DHT22;8581;47.334;11.190;2023-04-24T06:07:21;6.10;99.90
16929;DHT22;8581;47.334;11.190;2023-04-24T06:09:53;6.20;99.90
16929;DHT22;8581;47.334;11.190;2023-04-24T06:12:25;6.20;99.90
16929;DHT22;8581;47.334;11.190;2023-04-24T06:14:57;6.20;99.90
16929;DHT22;8581;47.334;11.190;2023-04-24T06:17:29;6.00;99.90
16929;DHT22;8581;47.334;11.190;2023-04-24T06:20:00;5.90;99.90
16929;DHT22;8581;47.334;11.190;2023-04-24T06:22:32;5.80;99.90
16929;DHT22;8581;47.334;11.190;2023-04-24T06:25:04;5.80;99.90
16929;DHT22;8581;47.334;11.190;2023-04-24T06:27:36;5.90;99.90
16929;DHT22;8581;47.334;11.190;2023-04-24T06:30:09;6.00;99.90
16929;DHT22;8581;47.334;11.190;2023-04-24T06:32:40;6.20;99.90
16929;DHT22;8581;47.334;11.190;2023-04-24T06:35:12;6.40;99.90
16929;DHT22;8581;47.334;11.190;2023-04-24T06:37:44;6.30;99.90
16929;DHT22;8581;47.334;11.190;2023-04-24T06:40:15;6.50;99.90
16929;DHT22;8581;47.334;11.190;2023-04-24T06:42:47;6.50;99.90
16929;DHT22;8581;47.334;11.190;2023-04-24T06:45:19;6.60;99.90
16929;DHT22;8581;47.334;11.190;2023-04-24T06:47:50;6.90;99.90
16929;DHT22;8581;47.334;11.190;2023-04-24T06:50:22;6.80;99.90
16929;DHT22;8581;47.334;11.190;2023-04-24T06:52:54;6.80;99.90
16929;DHT22;8581;47.334;11.190;2023-04-24T06:55:25;6.70;99.90
16929;DHT22;8581;47.334;11.190;2023-04-24T06:57:57;6.90;99.90
16929;DHT22;8581;47.334;11.190;2023-04-24T07:00:28;7.10;99.90
16929;DHT22;8581;47.334;11.190;2023-04-24T07:03:00;7.40;99.90
16929;DHT22;8581;47.334;11.190;2023-04-24T07:05:32;7.80;99.90
16929;DHT22;8581;47.334;11.190;2023-04-24T07:08:03;7.90;99.90
16929;DHT22;8581;47.334;11.190;2023-04-24T07:10:35;8.10;99.90
16929;DHT22;8581;47.334;11.190;2023-04-24T07:13:06;8.50;99.90
16929;DHT22;8581;47.334;11.190;2023-04-24T07:15:38;8.30;99.90
16929;DHT22;8581;47.334;11.190;2023-04-24T07:18:10;8.30;99.90
16929;DHT22;8581;47.334;11.190;2023-04-24T07:20:42;8.30;99.90
16929;DHT22;8581;47.334;11.190;2023-04-24T07:23:14;8.60;99.90
16929;DHT22;8581;47.334;11.190;2023-04-24T07:25:45;9.10;99.90
16929;DHT22;8581;47.334;11.190;2023-04-24T07:28:17;8.70;99.90
16929;DHT22;8581;47.334;11.190;2023-04-24T07:30:48;8.90;99.90
16929;DHT22;8581;47.334;11.190;2023-04-24T07:33:20;9.20;99.90
16929;DHT22;8581;47.334;11.190;2023-04-24T07:35:52;9.30;99.90
16929;DHT22;8581;47.334;11.190;2023-04-24T07:38:23;9.30;99.90
16929;DHT22;8581;47.334;11.190;2023-04-24T07:40:55;9.50;99.90
16929;DHT22;8581;47.334;11.190;2023-04-24T07:43:26;9.60;99.90
16929;DHT22;8581;47.334;11.190;2023-04-24T07:45:58;9.40;99.90
16929;DHT22;8581;47.334;11.190;2023-04-24T07:48:30;9.40;99.90
16929;DHT22;8581;47.334;11.190;2023-04-24T07:51:02;9.60;99.90
16929;DHT22;8581;47.334;11.190;2023-04-24T07:53:34;10.20;99.90
16929;DHT22;8581;47.334;11.190;2023-04-24T07:56:05;10.00;99.90
16929;DHT22;8581;47.334;11.190;2023-04-24T07:58:37;10.20;99.90
16929;DHT22;8581;47.334;11.190;2023-04-24T08:01:09;10.30;99.90
16929;DHT22;8581;47.334;11.190;2023-04-24T08:03:40;10.20;99.90
16929;DHT22;8581;47.334;11.190;2023-04-24T08:06:12;10.00;99.90
16929;DHT22;8581;47.334;11.190;2023-04-24T08:08:43;9.90;99.90
16929;DHT22;8581;47.334;11.190;2023-04-24T08:11:15;9.90;99.90
16929;DHT22;8581;47.334;11.190;2023-04-24T08:13:47;9.90;99.90
16929;DHT22;8581;47.334;11.190;2023-04-24T08:16:18;9.50;99.90
16929;DHT22;8581;47.334;11.190;2023-04-24T08:18:50;9.70;99.90
16929;DHT22;8581;47.334;11.190;2023-04-24T08:21:22;9.70;99.90
16929;DHT22;8581;47.334;11.190;2023-04-24T08:23:54;10.00;99.90
16929;DHT22;8581;47.334;11.190;2023-04-24T08:26:26;10.00;99.90
16929;DHT22;8581;47.334;11.190;2023-04-24T08:28:57;9.90;99.90
16929;DHT22;8581;47.334;11.190;2023-04-24T08:31:29;10.20;99.90
16929;DHT22;8581;47.334;11.190;2023-04-24T08:34:00;10.30;99.90
16929;DHT22;8581;47.334;11.190;2023-04-24T08:36:32;10.40;99.90
16929;DHT22;8581;47.334;11.190;2023-04-24T08:39:04;10.50;99.90
16929;DHT22;8581;47.334;11.190;2023-04-24T08:41:35;10.80;99.90
16929;DHT22;8581;47.334;11.190;2023-04-24T08:44:07;10.80;99.90
16929;DHT22;8581;47.334;11.190;2023-04-24T08:46:39;10.80;99.90
16929;DHT22;8581;47.334;11.190;2023-04-24T08:49:11;10.80;99.90
16929;DHT22;8581;47.334;11.190;2023-04-24T08:51:42;10.80;99.90
16929;DHT22;8581;47.334;11.190;2023-04-24T08:54:13;10.50;99.90
16929;DHT22;8581;47.334;11.190;2023-04-24T08:56:45;10.50;99.90
16929;DHT22;8581;47.334;11.190;2023-04-24T08:59:16;10.80;99.90
16929;DHT22;8581;47.334;11.190;2023-04-24T09:01:48;10.70;99.90
16929;DHT22;8581;47.334;11.190;2023-04-24T09:04:20;10.60;99.90
16929;DHT22;8581;47.334;11.190;2023-04-24T09:06:55;10.70;99.90
16929;DHT22;8581;47.334;11.190;2023-04-24T09:09:26;10.70;99.90
16929;DHT22;8581;47.334;11.190;2023-04-24T09:11:57;10.80;99.90
16929;DHT22;8581;47.334;11.190;2023-04-24T09:14:29;11.00;99.90
16929;DHT22;8581;47.334;11.190;2023-04-24T09:17:01;10.90;99.90
16929;DHT22;8581;47.334;11.190;2023-04-24T09:19:32;11.30;99.90
16929;DHT22;8581;47.334;11.190;2023-04-24T09:22:05;10.90;99.90
16929;DHT22;8581;47.334;11.190;2023-04-24T09:24:36;11.00;99.90
16929;DHT22;8581;47.334;11.190;2023-04-24T09:27:08;11.10;99.90
16929;DHT22;8581;47.334;11.190;2023-04-24T09:29:52;10.90;99.90
16929;DHT22;8581;47.334;11.190;2023-04-24T09:32:19;11.40;99.90
16929;DHT22;8581;47.334;11.190;2023-04-24T09:34:49;11.80;99.90
16929;DHT22;8581;47.334;11.190;2023-04-24T09:37:28;12.60;99.90
16929;DHT22;8581;47.334;11.190;2023-04-24T09:40:08;11.80;99.90
16929;DHT22;8581;47.334;11.190;2023-04-24T09:42:40;12.10;99.90
16929;DHT22;8581;47.334;11.190;2023-04-24T09:45:11;12.40;99.90
16929;DHT22;8581;47.334;11.190;2023-04-24T09:47:42;12.70;99.90
16929;DHT22;8581;47.334;11.190;2023-04-24T09:50:15;12.80;99.90
16929;DHT22;8581;47.334;11.190;2023-04-24T09:52:55;12.60;99.90
16929;DHT22;8581;47.334;11.190;2023-04-24T09:55:19;11.80;99.90
16929;DHT22;8581;47.334;11.190;2023-04-24T09:57:53;11.60;99.90
16929;DHT22;8581;47.334;11.190;2023-04-24T10:00:26;11.80;99.90
16929;DHT22;8581;47.334;11.190;2023-04-24T10:02:57;11.70;99.90
16929;DHT22;8581;47.334;11.190;2023-04-24T10:05:31;12.50;99.90
16929;DHT22;8581;47.334;11.190;2023-04-24T10:08:04;12.50;99.90
16929;DHT22;8581;47.334;11.190;2023-04-24T10:10:39;13.00;99.90
16929;DHT22;8581;47.334;11.190;2023-04-24T10:13:10;13.60;99.90
16929;DHT22;8581;47.334;11.190;2023-04-24T10:15:41;13.70;99.90
16929;DHT22;8581;47.334;11.190;2023-04-24T10:18:13;13.60;99.90
16929;DHT22;8581;47.334;11.190;2023-04-24T10:20:44;14.20;99.90
16929;DHT22;8581;47.334;11.190;2023-04-24T10:23:16;14.10;99.90
16929;DHT22;8581;47.334;11.190;2023-04-24T10:25:48;13.90;99.90
16929;DHT22;8581;47.334;11.190;2023-04-24T10:28:19;14.20;99.90
16929;DHT22;8581;47.334;11.190;2023-04-24T10:30:51;14.40;99.90
16929;DHT22;8581;47.334;11.190;2023-04-24T10:33:22;14.70;99.90
16929;DHT22;8581;47.334;11.190;2023-04-24T10:35:54;15.00;99.90
16929;DHT22;8581;47.334;11.190;2023-04-24T10:38:26;14.80;99.90
16929;DHT22;8581;47.334;11.190;2023-04-24T10:41:06;14.60;99.90
16929;DHT22;8581;47.334;11.190;2023-04-24T10:43:29;14.30;99.90
16929;DHT22;8581;47.334;11.190;2023-04-24T10:46:01;13.70;99.90
16929;DHT22;8581;47.334;11.190;2023-04-24T10:48:32;13.40;99.90
16929;DHT22;8581;47.334;11.190;2023-04-24T10:51:04;13.40;99.90
16929;DHT22;8581;47.334;11.190;2023-04-24T10:53:35;13.20;99.90
16929;DHT22;8581;47.334;11.190;2023-04-24T10:56:08;12.30;99.90
16929;DHT22;8581;47.334;11.190;2023-04-24T10:58:41;12.10;99.90
16929;DHT22;8581;47.334;11.190;2023-04-24T11:01:25;11.70;99.90
16929;DHT22;8581;47.334;11.190;2023-04-24T11:03:57;11.00;99.90
16929;DHT22;8581;47.334;11.190;2023-04-24T11:06:30;10.10;99.90
16929;DHT22;8581;47.334;11.190;2023-04-24T11:09:05;10.50;99.90
16929;DHT22;8581;47.334;11.190;2023-04-24T11:11:36;10.70;99.90
16929;DHT22;8581;47.334;11.190;2023-04-24T11:14:08;10.60;99.90
16929;DHT22;8581;47.334;11.190;2023-04-24T11:16:43;10.00;99.90
16929;DHT22;8581;47.334;11.190;2023-04-24T11:19:24;9.60;99.90
16929;DHT22;8581;47.334;11.190;2023-04-24T11:22:01;8.80;99.90
16929;DHT22;8581;47.334;11.190;2023-04-24T11:24:39;7.60;99.90
16929;DHT22;8581;47.334;11.190;2023-04-24T11:27:13;7.50;99.90
16929;DHT22;8581;47.334;11.190;2023-04-24T11:29:48;8.50;99.90
16929;DHT22;8581;47.334;11.190;2023-04-24T11:34:58;10.60;99.90
16929;DHT22;8581;47.334;11.190;2023-04-24T11:37:29;11.50;99.90
16929;DHT22;8581;47.334;11.190;2023-04-24T11:39:59;11.90;99.90
16929;DHT22;8581;47.334;11.190;2023-04-24T11:42:42;11.70;99.90
16929;DHT22;8581;47.334;11.190;2023-04-24T11:45:15;12.20;99.90
16929;DHT22;8581;47.334;11.190;2023-04-24T11:47:46;11.80;99.90
16929;DHT22;8581;47.334;11.190;2023-04-24T11:50:18;11.90;99.90
16929;DHT22;8581;47.334;11.190;2023-04-24T11:52:49;11.50;99.90
16929;DHT22;8581;47.334;11.190;2023-04-24T11:55:24;11.60;99.90
16929;DHT22;8581;47.334;11.190;2023-04-24T11:57:56;12.30;99.90
16929;DHT22;8581;47.334;11.190;2023-04-24T12:00:28;11.10;99.90
16929;DHT22;8581;47.334;11.190;2023-04-24T12:03:06;10.90;99.90
16929;DHT22;8581;47.334;11.190;2023-04-24T12:05:36;10.80;99.90
16929;DHT22;8581;47.334;11.190;2023-04-24T12:08:07;10.80;99.90
16929;DHT22;8581;47.334;11.190;2023-04-24T12:10:39;11.00;99.90
16929;DHT22;8581;47.334;11.190;2023-04-24T12:13:11;11.30;99.90
16929;DHT22;8581;47.334;11.190;2023-04-24T12:15:42;10.70;99.90
16929;DHT22;8581;47.334;11.190;2023-04-24T12:18:14;10.20;99.90
16929;DHT22;8581;47.334;11.190;2023-04-24T12:20:45;10.20;99.90
16929;DHT22;8581;47.334;11.190;2023-04-24T12:23:33;10.30;99.90
16929;DHT22;8581;47.334;11.190;2023-04-24T12:25:50;10.10;99.90
16929;DHT22;8581;47.334;11.190;2023-04-24T12:28:20;10.20;99.90
16929;DHT22;8581;47.334;11.190;2023-04-24T12:30:52;11.30;99.90
16929;DHT22;8581;47.334;11.190;2023-04-24T12:33:23;12.40;99.90
16929;DHT22;8581;47.334;11.190;2023-04-24T12:35:55;13.50;99.90
16929;DHT22;8581;47.334;11.190;2023-04-24T12:38:27;13.30;99.90
16929;DHT22;8581;47.334;11.190;2023-04-24T12:41:03;12.80;99.90
16929;DHT22;8581;47.334;11.190;2023-04-24T12:43:34;12.40;99.90
16929;DHT22;8581;47.334;11.190;2023-04-24T12:46:05;11.90;99.90
16929;DHT22;8581;47.334;11.190;2023-04-24T12:48:37;12.60;99.90
16929;DHT22;8581;47.334;11.190;2023-04-24T12:51:08;14.10;99.90
16929;DHT22;8581;47.334;11.190;2023-04-24T12:53:40;15.10;99.90
16929;DHT22;8581;47.334;11.190;2023-04-24T12:56:11;16.10;99.90
16929;DHT22;8581;47.334;11.190;2023-04-24T12:58:43;15.90;99.90
16929;DHT22;8581;47.334;11.190;2023-04-24T13:01:15;15.80;99.90
16929;DHT22;8581;47.334;11.190;2023-04-24T13:03:46;15.50;99.90
16929;DHT22;8581;47.334;11.190;2023-04-24T13:06:18;18.10;99.90
16929;DHT22;8581;47.334;11.190;2023-04-24T13:08:50;19.40;99.90
16929;DHT22;8581;47.334;11.190;2023-04-24T13:11:21;20.10;99.90
16929;DHT22;8581;47.334;11.190;2023-04-24T13:13:53;20.40;99.90
16929;DHT22;8581;47.334;11.190;2023-04-24T13:16:24;19.10;99.90
16929;DHT22;8581;47.334;11.190;2023-04-24T13:18:56;19.70;99.90
16929;DHT22;8581;47.334;11.190;2023-04-24T13:21:28;16.90;99.90
16929;DHT22;8581;47.334;11.190;2023-04-24T13:23:59;16.60;99.90
16929;DHT22;8581;47.334;11.190;2023-04-24T13:26:31;14.70;99.90
16929;DHT22;8581;47.334;11.190;2023-04-24T13:29:02;16.80;99.90
16929;DHT22;8581;47.334;11.190;2023-04-24T13:31:34;18.10;99.90
16929;DHT22;8581;47.334;11.190;2023-04-24T13:34:06;15.60;99.90
16929;DHT22;8581;47.334;11.190;2023-04-24T13:36:37;15.80;99.90
16929;DHT22;8581;47.334;11.190;2023-04-24T13:39:09;14.10;99.90
16929;DHT22;8581;47.334;11.190;2023-04-24T13:41:41;14.00;99.90
16929;DHT22;8581;47.334;11.190;2023-04-24T13:44:12;13.30;99.90
16929;DHT22;8581;47.334;11.190;2023-04-24T13:46:44;12.60;99.90
16929;DHT22;8581;47.334;11.190;2023-04-24T13:49:15;12.30;99.90
16929;DHT22;8581;47.334;11.190;2023-04-24T13:51:47;11.30;99.90
16929;DHT22;8581;47.334;11.190;2023-04-24T13:54:19;10.80;99.90
16929;DHT22;8581;47.334;11.190;2023-04-24T13:56:50;10.70;99.90
16929;DHT22;8581;47.334;11.190;2023-04-24T13:59:22;10.10;99.90
16929;DHT22;8581;47.334;11.190;2023-04-24T14:01:53;10.00;99.90
16929;DHT22;8581;47.334;11.190;2023-04-24T14:04:25;10.40;99.90
16929;DHT22;8581;47.334;11.190;2023-04-24T14:06:57;10.90;99.90
16929;DHT22;8581;47.334;11.190;2023-04-24T14:09:28;11.20;99.90
16929;DHT22;8581;47.334;11.190;2023-04-24T14:12:00;10.70;99.90
16929;DHT22;8581;47.334;11.190;2023-04-24T14:14:31;11.20;99.90
16929;DHT22;8581;47.334;11.190;2023-04-24T14:17:03;11.30;99.90
16929;DHT22;8581;47.334;11.190;2023-04-24T14:19:35;12.00;99.90
16929;DHT22;8581;47.334;11.190;2023-04-24T14:22:06;12.10;99.90
16929;DHT22;8581;47.334;11.190;2023-04-24T14:24:38;12.20;99.90
16929;DHT22;8581;47.334;11.190;2023-04-24T14:27:09;12.30;99.90
16929;DHT22;8581;47.334;11.190;2023-04-24T14:29:41;12.40;99.90
16929;DHT22;8581;47.334;11.190;2023-04-24T14:32:13;12.40;99.90
16929;DHT22;8581;47.334;11.190;2023-04-24T14:34:44;13.60;99.90
16929;DHT22;8581;47.334;11.190;2023-04-24T14:37:16;15.00;99.90
16929;DHT22;8581;47.334;11.190;2023-04-24T14:39:47;16.20;99.90
16929;DHT22;8581;47.334;11.190;2023-04-24T14:42:19;16.70;99.90
16929;DHT22;8581;47.334;11.190;2023-04-24T14:44:51;16.30;98.30
16929;DHT22;8581;47.334;11.190;2023-04-24T14:47:22;15.80;99.40
16929;DHT22;8581;47.334;11.190;2023-04-24T14:49:54;13.70;99.90
16929;DHT22;8581;47.334;11.190;2023-04-24T14:52:25;13.30;99.90
16929;DHT22;8581;47.334;11.190;2023-04-24T14:54:57;13.10;99.90
16929;DHT22;8581;47.334;11.190;2023-04-24T14:57:29;13.50;99.90
16929;DHT22;8581;47.334;11.190;2023-04-24T15:00:00;15.10;99.00
16929;DHT22;8581;47.334;11.190;2023-04-24T15:02:32;14.50;98.10
16929;DHT22;8581;47.334;11.190;2023-04-24T15:05:04;13.20;99.90
16929;DHT22;8581;47.334;11.190;2023-04-24T15:07:36;12.00;99.90
16929;DHT22;8581;47.334;11.190;2023-04-24T15:10:08;11.10;99.90
16929;DHT22;8581;47.334;11.190;2023-04-24T15:12:40;10.30;99.90
16929;DHT22;8581;47.334;11.190;2023-04-24T15:15:12;9.70;99.90
16929;DHT22;8581;47.334;11.190;2023-04-24T15:17:43;9.40;99.90
16929;DHT22;8581;47.334;11.190;2023-04-24T15:20:15;9.30;99.90
16929;DHT22;8581;47.334;11.190;2023-04-24T15:22:47;9.20;99.90
16929;DHT22;8581;47.334;11.190;2023-04-24T15:25:18;9.00;99.90
16929;DHT22;8581;47.334;11.190;2023-04-24T15:27:50;9.00;99.90
16929;DHT22;8581;47.334;11.190;2023-04-24T15:30:21;8.90;99.90
16929;DHT22;8581;47.334;11.190;2023-04-24T15:32:53;8.90;99.90
16929;DHT22;8581;47.334;11.190;2023-04-24T15:35:25;8.90;99.90
16929;DHT22;8581;47.334;11.190;2023-04-24T15:37:56;8.80;99.90
16929;DHT22;8581;47.334;11.190;2023-04-24T15:40:28;8.70;99.90
16929;DHT22;8581;47.334;11.190;2023-04-24T15:42:59;8.60;99.90
16929;DHT22;8581;47.334;11.190;2023-04-24T15:45:32;8.60;99.90
16929;DHT22;8581;47.334;11.190;2023-04-24T15:48:03;9.00;99.90
16929;DHT22;8581;47.334;11.190;2023-04-24T15:50:34;9.20;99.90
16929;DHT22;8581;47.334;11.190;2023-04-24T15:53:06;9.30;99.90
16929;DHT22;8581;47.334;11.190;2023-04-24T15:55:37;9.40;99.90
16929;DHT22;8581;47.334;11.190;2023-04-24T15:58:09;9.50;99.90
16929;DHT22;8581;47.334;11.190;2023-04-24T16:00:41;9.20;99.90
16929;DHT22;8581;47.334;11.190;2023-04-24T16:03:12;9.40;99.90
16929;DHT22;8581;47.334;11.190;2023-04-24T16:05:44;9.20;99.90
16929;DHT22;8581;47.334;11.190;2023-04-24T16:08:15;9.20;99.90
16929;DHT22;8581;47.334;11.190;2023-04-24T16:10:47;9.30;99.90